sensor_id;sensor_type;location;lat;lon;timestamp;P1;durP1;ratioP1;P2;durP2;ratioP2
65558;SDS011;52203;51.998;5.140;2023-04-24T00:02:12;3.25;;;1.80;;
65558;SDS011;52203;51.998;5.140;2023-04-24T00:04:38;3.72;;;1.95;;
65558;SDS011;52203;51.998;5.140;2023-04-24T00:07:05;3.33;;;2.00;;
65558;SDS011;52203;51.998;5.140;2023-04-24T00:09:32;3.53;;;1.48;;
65558;SDS011;52203;51.998;5.140;2023-04-24T00:11:58;3.47;;;1.50;;
65558;SDS011;52203;51.998;5.140;2023-04-24T00:14:23;2.25;;;1.17;;
65558;SDS011;52203;51.998;5.140;2023-04-24T00:16:49;2.53;;;1.30;;
65558;SDS011;52203;51.998;5.140;2023-04-24T00:19:14;2.72;;;1.50;;
65558;SDS011;52203;51.998;5.140;2023-04-24T00:21:40;2.80;;;1.60;;
65558;SDS011;52203;51.998;5.140;2023-04-24T00:24:06;2.25;;;1.60;;
65558;SDS011;52203;51.998;5.140;2023-04-24T00:26:34;3.63;;;1.80;;
65558;SDS011;52203;51.998;5.140;2023-04-24T00:28:59;3.00;;;1.60;;
65558;SDS011;52203;51.998;5.140;2023-04-24T00:31:25;3.05;;;2.15;;
65558;SDS011;52203;51.998;5.140;2023-04-24T00:33:50;4.32;;;1.83;;
65558;SDS011;52203;51.998;5.140;2023-04-24T00:36:16;4.72;;;2.20;;
65558;SDS011;52203;51.998;5.140;2023-04-24T00:38:44;3.92;;;2.10;;
65558;SDS011;52203;51.998;5.140;2023-04-24T00:41:09;4.38;;;2.05;;
65558;SDS011;52203;51.998;5.140;2023-04-24T00:43:35;5.72;;;2.15;;
65558;SDS011;52203;51.998;5.140;2023-04-24T00:46:00;3.80;;;2.28;;
65558;SDS011;52203;51.998;5.140;2023-04-24T00:48:26;4.45;;;2.25;;
65558;SDS011;52203;51.998;5.140;2023-04-24T00:50:52;4.78;;;2.03;;
65558;SDS011;52203;51.998;5.140;2023-04-24T00:53:18;3.78;;;1.85;;
65558;SDS011;52203;51.998;5.140;2023-04-24T00:55:44;3.65;;;1.90;;
65558;SDS011;52203;51.998;5.140;2023-04-24T00:58:10;3.45;;;2.10;;
65558;SDS011;52203;51.998;5.140;2023-04-24T01:00:36;4.20;;;2.50;;
65558;SDS011;52203;51.998;5.140;2023-04-24T01:03:01;4.78;;;2.25;;
65558;SDS011;52203;51.998;5.140;2023-04-24T01:05:29;4.45;;;2.30;;
65558;SDS011;52203;51.998;5.140;2023-04-24T01:07:55;4.55;;;2.25;;
65558;SDS011;52203;51.998;5.140;2023-04-24T01:10:21;4.35;;;2.70;;
65558;SDS011;52203;51.998;5.140;2023-04-24T01:12:49;5.32;;;2.45;;
65558;SDS011;52203;51.998;5.140;2023-04-24T01:15:15;5.78;;;2.50;;
65558;SDS011;52203;51.998;5.140;2023-04-24T01:17:40;6.00;;;3.05;;
65558;SDS011;52203;51.998;5.140;2023-04-24T01:20:06;3.53;;;1.95;;
65558;SDS011;52203;51.998;5.140;2023-04-24T01:22:35;4.28;;;2.25;;
65558;SDS011;52203;51.998;5.140;2023-04-24T01:25:01;4.43;;;2.20;;
65558;SDS011;52203;51.998;5.140;2023-04-24T01:27:27;6.03;;;2.38;;
65558;SDS011;52203;51.998;5.140;2023-04-24T01:29:52;3.90;;;2.25;;
65558;SDS011;52203;51.998;5.140;2023-04-24T01:32:18;3.97;;;2.38;;
65558;SDS011;52203;51.998;5.140;2023-04-24T01:34:45;6.10;;;2.70;;
65558;SDS011;52203;51.998;5.140;2023-04-24T01:37:11;5.97;;;2.65;;
65558;SDS011;52203;51.998;5.140;2023-04-24T01:39:37;5.28;;;3.10;;
65558;SDS011;52203;51.998;5.140;2023-04-24T01:42:02;5.10;;;2.92;;
65558;SDS011;52203;51.998;5.140;2023-04-24T01:44:29;5.63;;;3.08;;
65558;SDS011;52203;51.998;5.140;2023-04-24T01:46:55;6.03;;;2.90;;
65558;SDS011;52203;51.998;5.140;2023-04-24T01:49:21;4.88;;;2.72;;
65558;SDS011;52203;51.998;5.140;2023-04-24T01:51:47;4.75;;;3.10;;
65558;SDS011;52203;51.998;5.140;2023-04-24T01:54:13;5.75;;;3.40;;
65558;SDS011;52203;51.998;5.140;2023-04-24T01:56:42;4.50;;;2.55;;
65558;SDS011;52203;51.998;5.140;2023-04-24T01:59:09;5.22;;;3.20;;
65558;SDS011;52203;51.998;5.140;2023-04-24T02:01:36;6.97;;;3.80;;
65558;SDS011;52203;51.998;5.140;2023-04-24T02:04:02;5.65;;;3.00;;
65558;SDS011;52203;51.998;5.140;2023-04-24T02:06:29;6.03;;;3.30;;
65558;SDS011;52203;51.998;5.140;2023-04-24T02:08:56;4.78;;;2.67;;
65558;SDS011;52203;51.998;5.140;2023-04-24T02:11:22;4.90;;;2.80;;
65558;SDS011;52203;51.998;5.140;2023-04-24T02:13:48;5.40;;;2.20;;
65558;SDS011;52203;51.998;5.140;2023-04-24T02:16:13;5.07;;;3.38;;
65558;SDS011;52203;51.998;5.140;2023-04-24T02:18:39;4.60;;;2.70;;
65558;SDS011;52203;51.998;5.140;2023-04-24T02:21:04;6.50;;;3.17;;
65558;SDS011;52203;51.998;5.140;2023-04-24T02:23:30;6.95;;;3.22;;
65558;SDS011;52203;51.998;5.140;2023-04-24T02:25:55;6.63;;;3.33;;
65558;SDS011;52203;51.998;5.140;2023-04-24T02:28:21;6.57;;;3.33;;
65558;SDS011;52203;51.998;5.140;2023-04-24T02:30:46;5.88;;;3.33;;
65558;SDS011;52203;51.998;5.140;2023-04-24T02:33:12;5.32;;;3.40;;
65558;SDS011;52203;51.998;5.140;2023-04-24T02:35:37;4.95;;;3.22;;
65558;SDS011;52203;51.998;5.140;2023-04-24T02:38:03;5.28;;;3.25;;
65558;SDS011;52203;51.998;5.140;2023-04-24T02:40:29;5.45;;;3.30;;
65558;SDS011;52203;51.998;5.140;2023-04-24T02:42:55;6.93;;;3.30;;
65558;SDS011;52203;51.998;5.140;2023-04-24T02:45:20;6.97;;;3.92;;
65558;SDS011;52203;51.998;5.140;2023-04-24T02:47:46;9.05;;;3.97;;
65558;SDS011;52203;51.998;5.140;2023-04-24T02:50:11;7.97;;;3.97;;
65558;SDS011;52203;51.998;5.140;2023-04-24T02:52:37;8.35;;;3.97;;
65558;SDS011;52203;51.998;5.140;2023-04-24T02:55:02;5.68;;;3.55;;
65558;SDS011;52203;51.998;5.140;2023-04-24T02:57:28;7.43;;;4.13;;
65558;SDS011;52203;51.998;5.140;2023-04-24T02:59:54;6.40;;;4.15;;
65558;SDS011;52203;51.998;5.140;2023-04-24T03:02:19;7.13;;;4.13;;
65558;SDS011;52203;51.998;5.140;2023-04-24T03:04:45;5.97;;;3.47;;
65558;SDS011;52203;51.998;5.140;2023-04-24T03:07:12;5.82;;;3.47;;
65558;SDS011;52203;51.998;5.140;2023-04-24T03:09:39;5.38;;;2.80;;
65558;SDS011;52203;51.998;5.140;2023-04-24T03:12:05;7.15;;;3.60;;
65558;SDS011;52203;51.998;5.140;2023-04-24T03:14:31;5.82;;;3.13;;
65558;SDS011;52203;51.998;5.140;2023-04-24T03:16:57;8.07;;;3.45;;
65558;SDS011;52203;51.998;5.140;2023-04-24T03:19:22;5.70;;;2.53;;
65558;SDS011;52203;51.998;5.140;2023-04-24T03:21:48;6.05;;;2.85;;
65558;SDS011;52203;51.998;5.140;2023-04-24T03:24:13;4.53;;;1.88;;
65558;SDS011;52203;51.998;5.140;2023-04-24T03:26:39;3.80;;;1.95;;
65558;SDS011;52203;51.998;5.140;2023-04-24T03:29:04;3.75;;;2.40;;
65558;SDS011;52203;51.998;5.140;2023-04-24T03:31:30;3.65;;;2.20;;
65558;SDS011;52203;51.998;5.140;2023-04-24T03:33:55;4.63;;;2.58;;
65558;SDS011;52203;51.998;5.140;2023-04-24T03:36:21;4.80;;;2.25;;
65558;SDS011;52203;51.998;5.140;2023-04-24T03:38:46;4.60;;;2.20;;
65558;SDS011;52203;51.998;5.140;2023-04-24T03:41:12;4.70;;;2.13;;
65558;SDS011;52203;51.998;5.140;2023-04-24T03:43:37;4.55;;;2.35;;
65558;SDS011;52203;51.998;5.140;2023-04-24T03:46:04;4.00;;;2.22;;
65558;SDS011;52203;51.998;5.140;2023-04-24T03:48:29;5.60;;;2.80;;
65558;SDS011;52203;51.998;5.140;2023-04-24T03:50:55;4.85;;;2.88;;
65558;SDS011;52203;51.998;5.140;2023-04-24T03:53:20;6.43;;;3.35;;
65558;SDS011;52203;51.998;5.140;2023-04-24T03:55:46;6.97;;;3.78;;
65558;SDS011;52203;51.998;5.140;2023-04-24T03:58:11;7.15;;;3.50;;
65558;SDS011;52203;51.998;5.140;2023-04-24T04:00:39;6.10;;;3.30;;
65558;SDS011;52203;51.998;5.140;2023-04-24T04:03:05;6.45;;;3.47;;
65558;SDS011;52203;51.998;5.140;2023-04-24T04:05:31;6.82;;;3.13;;
65558;SDS011;52203;51.998;5.140;2023-04-24T04:07:56;6.55;;;3.08;;
65558;SDS011;52203;51.998;5.140;2023-04-24T04:10:22;6.57;;;3.05;;
65558;SDS011;52203;51.998;5.140;2023-04-24T04:12:47;8.73;;;2.78;;
65558;SDS011;52203;51.998;5.140;2023-04-24T04:15:13;4.13;;;1.85;;
65558;SDS011;52203;51.998;5.140;2023-04-24T04:17:39;2.58;;;1.38;;
65558;SDS011;52203;51.998;5.140;2023-04-24T04:20:04;2.88;;;1.33;;
65558;SDS011;52203;51.998;5.140;2023-04-24T04:22:35;2.50;;;1.20;;
65558;SDS011;52203;51.998;5.140;2023-04-24T04:25:01;2.22;;;1.20;;
65558;SDS011;52203;51.998;5.140;2023-04-24T04:27:27;3.00;;;1.00;;
65558;SDS011;52203;51.998;5.140;2023-04-24T04:29:54;1.73;;;1.00;;
65558;SDS011;52203;51.998;5.140;2023-04-24T04:32:21;1.40;;;0.82;;
65558;SDS011;52203;51.998;5.140;2023-04-24T04:34:47;1.70;;;0.93;;
65558;SDS011;52203;51.998;5.140;2023-04-24T04:37:14;1.58;;;1.10;;
65558;SDS011;52203;51.998;5.140;2023-04-24T04:39:40;3.15;;;0.90;;
65558;SDS011;52203;51.998;5.140;2023-04-24T04:42:05;1.35;;;0.77;;
65558;SDS011;52203;51.998;5.140;2023-04-24T04:44:31;1.98;;;1.00;;
65558;SDS011;52203;51.998;5.140;2023-04-24T04:46:57;1.80;;;0.80;;
65558;SDS011;52203;51.998;5.140;2023-04-24T04:49:24;1.23;;;1.10;;
65558;SDS011;52203;51.998;5.140;2023-04-24T04:51:49;1.65;;;0.80;;
65558;SDS011;52203;51.998;5.140;2023-04-24T04:54:16;2.17;;;0.88;;
65558;SDS011;52203;51.998;5.140;2023-04-24T04:56:41;2.38;;;0.90;;
65558;SDS011;52203;51.998;5.140;2023-04-24T04:59:07;1.67;;;0.80;;
65558;SDS011;52203;51.998;5.140;2023-04-24T05:01:32;0.90;;;0.70;;
65558;SDS011;52203;51.998;5.140;2023-04-24T05:03:58;1.15;;;0.80;;
65558;SDS011;52203;51.998;5.140;2023-04-24T05:06:23;2.47;;;0.90;;
65558;SDS011;52203;51.998;5.140;2023-04-24T05:08:49;0.85;;;0.65;;
65558;SDS011;52203;51.998;5.140;2023-04-24T05:11:16;1.17;;;0.80;;
65558;SDS011;52203;51.998;5.140;2023-04-24T05:13:41;2.55;;;0.85;;
65558;SDS011;52203;51.998;5.140;2023-04-24T05:16:07;0.70;;;0.65;;
65558;SDS011;52203;51.998;5.140;2023-04-24T05:18:32;1.80;;;0.70;;
65558;SDS011;52203;51.998;5.140;2023-04-24T05:20:58;1.17;;;0.65;;
65558;SDS011;52203;51.998;5.140;2023-04-24T05:23:23;2.38;;;0.88;;
65558;SDS011;52203;51.998;5.140;2023-04-24T05:25:49;1.13;;;0.70;;
65558;SDS011;52203;51.998;5.140;2023-04-24T05:28:14;1.20;;;0.80;;
65558;SDS011;52203;51.998;5.140;2023-04-24T05:30:40;2.20;;;0.70;;
65558;SDS011;52203;51.998;5.140;2023-04-24T05:33:05;0.90;;;0.60;;
65558;SDS011;52203;51.998;5.140;2023-04-24T05:35:31;5.60;;;0.90;;
65558;SDS011;52203;51.998;5.140;2023-04-24T05:37:56;1.67;;;0.93;;
65558;SDS011;52203;51.998;5.140;2023-04-24T05:40:22;1.90;;;0.80;;
65558;SDS011;52203;51.998;5.140;2023-04-24T05:42:48;2.05;;;0.80;;
65558;SDS011;52203;51.998;5.140;2023-04-24T05:45:13;1.95;;;0.93;;
65558;SDS011;52203;51.998;5.140;2023-04-24T05:47:41;2.30;;;0.90;;
65558;SDS011;52203;51.998;5.140;2023-04-24T05:50:10;3.53;;;1.10;;
65558;SDS011;52203;51.998;5.140;2023-04-24T05:52:36;3.92;;;1.02;;
65558;SDS011;52203;51.998;5.140;2023-04-24T05:55:01;2.65;;;1.08;;
65558;SDS011;52203;51.998;5.140;2023-04-24T05:57:27;1.88;;;0.93;;
65558;SDS011;52203;51.998;5.140;2023-04-24T05:59:52;3.13;;;1.13;;
65558;SDS011;52203;51.998;5.140;2023-04-24T06:02:18;1.70;;;0.90;;
65558;SDS011;52203;51.998;5.140;2023-04-24T06:04:44;2.53;;;1.13;;
65558;SDS011;52203;51.998;5.140;2023-04-24T06:07:13;2.83;;;1.23;;
65558;SDS011;52203;51.998;5.140;2023-04-24T06:09:38;3.08;;;1.23;;
65558;SDS011;52203;51.998;5.140;2023-04-24T06:12:04;2.85;;;1.40;;
65558;SDS011;52203;51.998;5.140;2023-04-24T06:14:29;2.88;;;1.70;;
65558;SDS011;52203;51.998;5.140;2023-04-24T06:16:55;3.20;;;2.08;;
65558;SDS011;52203;51.998;5.140;2023-04-24T06:19:20;7.13;;;2.95;;
65558;SDS011;52203;51.998;5.140;2023-04-24T06:21:46;10.02;;;4.45;;
65558;SDS011;52203;51.998;5.140;2023-04-24T06:24:13;10.05;;;5.15;;
65558;SDS011;52203;51.998;5.140;2023-04-24T06:26:39;10.10;;;5.47;;
65558;SDS011;52203;51.998;5.140;2023-04-24T06:29:05;11.95;;;5.32;;
65558;SDS011;52203;51.998;5.140;2023-04-24T06:31:32;11.15;;;6.05;;
65558;SDS011;52203;51.998;5.140;2023-04-24T06:34:02;12.32;;;5.95;;
65558;SDS011;52203;51.998;5.140;2023-04-24T06:36:28;12.77;;;6.15;;
65558;SDS011;52203;51.998;5.140;2023-04-24T06:38:53;12.93;;;6.15;;
65558;SDS011;52203;51.998;5.140;2023-04-24T06:41:19;16.27;;;7.22;;
65558;SDS011;52203;51.998;5.140;2023-04-24T06:43:45;15.23;;;7.03;;
65558;SDS011;52203;51.998;5.140;2023-04-24T06:46:10;13.95;;;7.10;;
65558;SDS011;52203;51.998;5.140;2023-04-24T06:48:37;16.17;;;7.90;;
65558;SDS011;52203;51.998;5.140;2023-04-24T06:51:02;15.95;;;7.18;;
65558;SDS011;52203;51.998;5.140;2023-04-24T06:53:28;17.38;;;8.02;;
65558;SDS011;52203;51.998;5.140;2023-04-24T06:55:59;18.15;;;7.65;;
65558;SDS011;52203;51.998;5.140;2023-04-24T06:58:25;19.90;;;7.50;;
65558;SDS011;52203;51.998;5.140;2023-04-24T07:00:51;15.48;;;6.75;;
65558;SDS011;52203;51.998;5.140;2023-04-24T07:03:16;16.10;;;7.35;;
65558;SDS011;52203;51.998;5.140;2023-04-24T07:05:42;17.67;;;7.45;;
65558;SDS011;52203;51.998;5.140;2023-04-24T07:08:08;22.02;;;7.85;;
65558;SDS011;52203;51.998;5.140;2023-04-24T07:10:34;12.60;;;6.72;;
65558;SDS011;52203;51.998;5.140;2023-04-24T07:13:00;15.07;;;6.60;;
65558;SDS011;52203;51.998;5.140;2023-04-24T07:15:26;15.90;;;6.63;;
65558;SDS011;52203;51.998;5.140;2023-04-24T07:17:52;13.48;;;6.22;;
65558;SDS011;52203;51.998;5.140;2023-04-24T07:20:17;15.75;;;6.60;;
65558;SDS011;52203;51.998;5.140;2023-04-24T07:22:43;14.82;;;6.55;;
65558;SDS011;52203;51.998;5.140;2023-04-24T07:25:08;16.85;;;5.65;;
65558;SDS011;52203;51.998;5.140;2023-04-24T07:27:37;18.10;;;6.25;;
65558;SDS011;52203;51.998;5.140;2023-04-24T07:30:03;11.25;;;5.00;;
65558;SDS011;52203;51.998;5.140;2023-04-24T07:32:29;15.13;;;5.13;;
65558;SDS011;52203;51.998;5.140;2023-04-24T07:34:55;16.10;;;5.78;;
65558;SDS011;52203;51.998;5.140;2023-04-24T07:37:20;14.52;;;5.25;;
65558;SDS011;52203;51.998;5.140;2023-04-24T07:39:46;17.08;;;5.95;;
65558;SDS011;52203;51.998;5.140;2023-04-24T07:42:12;19.95;;;5.25;;
65558;SDS011;52203;51.998;5.140;2023-04-24T07:44:38;15.82;;;5.05;;
65558;SDS011;52203;51.998;5.140;2023-04-24T07:47:03;12.05;;;5.07;;
65558;SDS011;52203;51.998;5.140;2023-04-24T07:49:29;13.98;;;4.70;;
65558;SDS011;52203;51.998;5.140;2023-04-24T07:51:54;14.65;;;5.40;;
65558;SDS011;52203;51.998;5.140;2023-04-24T07:54:20;14.07;;;4.63;;
65558;SDS011;52203;51.998;5.140;2023-04-24T07:56:45;14.18;;;4.72;;
65558;SDS011;52203;51.998;5.140;2023-04-24T07:59:11;10.80;;;4.20;;
65558;SDS011;52203;51.998;5.140;2023-04-24T08:01:36;10.43;;;4.30;;
65558;SDS011;52203;51.998;5.140;2023-04-24T08:04:03;13.40;;;3.38;;
65558;SDS011;52203;51.998;5.140;2023-04-24T08:06:28;11.43;;;3.53;;
65558;SDS011;52203;51.998;5.140;2023-04-24T08:08:56;9.75;;;3.35;;
65558;SDS011;52203;51.998;5.140;2023-04-24T08:11:22;13.20;;;2.92;;
65558;SDS011;52203;51.998;5.140;2023-04-24T08:13:47;15.73;;;3.88;;
65558;SDS011;52203;51.998;5.140;2023-04-24T08:16:13;9.88;;;3.03;;
65558;SDS011;52203;51.998;5.140;2023-04-24T08:18:38;9.27;;;3.15;;
65558;SDS011;52203;51.998;5.140;2023-04-24T08:21:04;11.73;;;3.30;;
65558;SDS011;52203;51.998;5.140;2023-04-24T08:23:29;11.07;;;3.15;;
65558;SDS011;52203;51.998;5.140;2023-04-24T08:25:55;8.48;;;2.58;;
65558;SDS011;52203;51.998;5.140;2023-04-24T08:28:21;9.45;;;2.67;;
65558;SDS011;52203;51.998;5.140;2023-04-24T08:30:47;8.00;;;2.30;;
65558;SDS011;52203;51.998;5.140;2023-04-24T08:33:13;11.63;;;2.67;;
65558;SDS011;52203;51.998;5.140;2023-04-24T08:35:39;6.90;;;2.08;;
65558;SDS011;52203;51.998;5.140;2023-04-24T08:38:05;14.82;;;3.65;;
65558;SDS011;52203;51.998;5.140;2023-04-24T08:40:30;9.35;;;2.60;;
65558;SDS011;52203;51.998;5.140;2023-04-24T08:42:59;8.52;;;2.60;;
65558;SDS011;52203;51.998;5.140;2023-04-24T08:45:25;9.20;;;2.75;;
65558;SDS011;52203;51.998;5.140;2023-04-24T08:47:52;9.07;;;2.53;;
65558;SDS011;52203;51.998;5.140;2023-04-24T08:50:19;7.13;;;2.45;;
65558;SDS011;52203;51.998;5.140;2023-04-24T08:52:45;8.25;;;2.70;;
65558;SDS011;52203;51.998;5.140;2023-04-24T08:55:12;9.82;;;2.75;;
65558;SDS011;52203;51.998;5.140;2023-04-24T08:57:37;12.25;;;2.83;;
65558;SDS011;52203;51.998;5.140;2023-04-24T09:00:05;6.22;;;2.17;;
65558;SDS011;52203;51.998;5.140;2023-04-24T09:02:31;7.60;;;2.35;;
65558;SDS011;52203;51.998;5.140;2023-04-24T09:04:59;14.18;;;2.80;;
65558;SDS011;52203;51.998;5.140;2023-04-24T09:07:26;6.80;;;1.77;;
65558;SDS011;52203;51.998;5.140;2023-04-24T09:09:54;13.18;;;2.40;;
65558;SDS011;52203;51.998;5.140;2023-04-24T09:12:21;8.82;;;2.22;;
65558;SDS011;52203;51.998;5.140;2023-04-24T09:14:46;8.23;;;2.17;;
65558;SDS011;52203;51.998;5.140;2023-04-24T09:17:13;4.88;;;1.95;;
65558;SDS011;52203;51.998;5.140;2023-04-24T09:19:39;9.05;;;2.08;;
65558;SDS011;52203;51.998;5.140;2023-04-24T09:22:05;6.68;;;2.17;;
65558;SDS011;52203;51.998;5.140;2023-04-24T09:24:32;6.18;;;1.98;;
65558;SDS011;52203;51.998;5.140;2023-04-24T09:26:58;7.00;;;2.67;;
65558;SDS011;52203;51.998;5.140;2023-04-24T09:29:24;5.97;;;2.10;;
65558;SDS011;52203;51.998;5.140;2023-04-24T09:31:50;6.32;;;2.13;;
65558;SDS011;52203;51.998;5.140;2023-04-24T09:34:20;3.45;;;1.80;;
65558;SDS011;52203;51.998;5.140;2023-04-24T09:36:51;6.53;;;2.10;;
65558;SDS011;52203;51.998;5.140;2023-04-24T09:39:17;5.15;;;1.73;;
65558;SDS011;52203;51.998;5.140;2023-04-24T09:46:42;9.65;;;1.85;;
65558;SDS011;52203;51.998;5.140;2023-04-24T09:49:10;7.30;;;1.95;;
65558;SDS011;52203;51.998;5.140;2023-04-24T09:51:40;5.68;;;1.98;;
65558;SDS011;52203;51.998;5.140;2023-04-24T09:54:15;4.32;;;1.60;;
65558;SDS011;52203;51.998;5.140;2023-04-24T09:56:45;6.68;;;1.83;;
65558;SDS011;52203;51.998;5.140;2023-04-24T09:59:13;4.60;;;1.67;;
65558;SDS011;52203;51.998;5.140;2023-04-24T10:01:39;4.90;;;1.58;;
65558;SDS011;52203;51.998;5.140;2023-04-24T10:04:14;4.65;;;1.50;;
65558;SDS011;52203;51.998;5.140;2023-04-24T10:06:44;2.85;;;1.20;;
65558;SDS011;52203;51.998;5.140;2023-04-24T10:09:10;4.18;;;1.30;;
65558;SDS011;52203;51.998;5.140;2023-04-24T10:11:37;5.07;;;1.40;;
65558;SDS011;52203;51.998;5.140;2023-04-24T10:14:08;2.92;;;1.20;;
65558;SDS011;52203;51.998;5.140;2023-04-24T10:16:35;4.85;;;1.70;;
65558;SDS011;52203;51.998;5.140;2023-04-24T10:19:02;4.80;;;1.20;;
65558;SDS011;52203;51.998;5.140;2023-04-24T10:21:28;2.47;;;1.15;;
65558;SDS011;52203;51.998;5.140;2023-04-24T10:23:55;4.47;;;1.50;;
65558;SDS011;52203;51.998;5.140;2023-04-24T10:26:21;3.85;;;1.23;;
65558;SDS011;52203;51.998;5.140;2023-04-24T10:28:47;4.55;;;1.20;;
65558;SDS011;52203;51.998;5.140;2023-04-24T10:31:14;2.63;;;1.00;;
65558;SDS011;52203;51.998;5.140;2023-04-24T10:33:43;2.80;;;1.10;;
65558;SDS011;52203;51.998;5.140;2023-04-24T10:36:10;2.03;;;0.80;;
65558;SDS011;52203;51.998;5.140;2023-04-24T10:38:38;5.30;;;1.00;;
65558;SDS011;52203;51.998;5.140;2023-04-24T10:41:07;3.63;;;0.90;;
65558;SDS011;52203;51.998;5.140;2023-04-24T10:43:41;5.38;;;1.08;;
65558;SDS011;52203;51.998;5.140;2023-04-24T10:46:08;2.22;;;0.98;;
65558;SDS011;52203;51.998;5.140;2023-04-24T10:48:35;2.80;;;1.17;;
65558;SDS011;52203;51.998;5.140;2023-04-24T10:51:10;2.08;;;0.75;;
65558;SDS011;52203;51.998;5.140;2023-04-24T10:53:36;1.92;;;0.73;;
65558;SDS011;52203;51.998;5.140;2023-04-24T10:56:03;2.33;;;0.93;;
65558;SDS011;52203;51.998;5.140;2023-04-24T11:01:03;2.53;;;0.90;;
65558;SDS011;52203;51.998;5.140;2023-04-24T11:03:30;2.17;;;0.82;;
65558;SDS011;52203;51.998;5.140;2023-04-24T11:06:01;3.13;;;0.88;;
65558;SDS011;52203;51.998;5.140;2023-04-24T11:11:10;3.00;;;0.87;;
65558;SDS011;52203;51.998;5.140;2023-04-24T11:19:03;2.78;;;0.80;;
65558;SDS011;52203;51.998;5.140;2023-04-24T11:29:38;3.35;;;0.90;;
65558;SDS011;52203;51.998;5.140;2023-04-24T11:34:52;3.00;;;0.90;;
65558;SDS011;52203;51.998;5.140;2023-04-24T11:37:23;3.58;;;1.00;;
65558;SDS011;52203;51.998;5.140;2023-04-24T11:39:54;3.83;;;0.80;;
65558;SDS011;52203;51.998;5.140;2023-04-24T11:42:21;2.63;;;0.80;;
65558;SDS011;52203;51.998;5.140;2023-04-24T11:44:54;3.53;;;0.88;;
65558;SDS011;52203;51.998;5.140;2023-04-24T11:47:27;5.65;;;1.00;;
65558;SDS011;52203;51.998;5.140;2023-04-24T11:49:53;6.40;;;0.90;;
65558;SDS011;52203;51.998;5.140;2023-04-24T11:52:19;3.85;;;0.82;;
65558;SDS011;52203;51.998;5.140;2023-04-24T11:54:48;5.25;;;1.00;;
65558;SDS011;52203;51.998;5.140;2023-04-24T11:57:15;2.25;;;1.00;;
65558;SDS011;52203;51.998;5.140;2023-04-24T11:59:41;3.60;;;0.82;;
65558;SDS011;52203;51.998;5.140;2023-04-24T12:02:07;2.53;;;0.90;;
65558;SDS011;52203;51.998;5.140;2023-04-24T12:04:39;3.15;;;0.85;;
65558;SDS011;52203;51.998;5.140;2023-04-24T12:07:05;2.45;;;1.40;;
65558;SDS011;52203;51.998;5.140;2023-04-24T12:09:46;5.82;;;1.35;;
65558;SDS011;52203;51.998;5.140;2023-04-24T12:12:14;4.07;;;1.05;;
65558;SDS011;52203;51.998;5.140;2023-04-24T12:14:55;3.42;;;1.27;;
65558;SDS011;52203;51.998;5.140;2023-04-24T12:17:31;4.65;;;1.20;;
65558;SDS011;52203;51.998;5.140;2023-04-24T12:20:04;5.05;;;1.55;;
65558;SDS011;52203;51.998;5.140;2023-04-24T12:22:47;3.75;;;1.10;;
65558;SDS011;52203;51.998;5.140;2023-04-24T12:25:15;5.38;;;1.38;;
65558;SDS011;52203;51.998;5.140;2023-04-24T12:27:46;8.05;;;1.88;;
65558;SDS011;52203;51.998;5.140;2023-04-24T12:30:17;7.88;;;1.83;;
65558;SDS011;52203;51.998;5.140;2023-04-24T12:32:43;4.88;;;1.30;;
65558;SDS011;52203;51.998;5.140;2023-04-24T12:35:10;6.22;;;1.38;;
65558;SDS011;52203;51.998;5.140;2023-04-24T12:37:36;5.18;;;1.25;;
65558;SDS011;52203;51.998;5.140;2023-04-24T12:42:33;5.50;;;1.50;;
65558;SDS011;52203;51.998;5.140;2023-04-24T12:45:01;10.50;;;1.75;;
65558;SDS011;52203;51.998;5.140;2023-04-24T12:47:30;8.35;;;1.50;;
65558;SDS011;52203;51.998;5.140;2023-04-24T12:49:56;5.60;;;1.42;;
65558;SDS011;52203;51.998;5.140;2023-04-24T12:52:22;5.72;;;1.65;;
65558;SDS011;52203;51.998;5.140;2023-04-24T12:54:49;8.15;;;2.50;;
65558;SDS011;52203;51.998;5.140;2023-04-24T12:57:16;5.57;;;1.83;;
65558;SDS011;52203;51.998;5.140;2023-04-24T12:59:46;6.55;;;2.00;;
65558;SDS011;52203;51.998;5.140;2023-04-24T13:02:11;9.70;;;2.70;;
65558;SDS011;52203;51.998;5.140;2023-04-24T13:04:37;14.40;;;2.15;;
65558;SDS011;52203;51.998;5.140;2023-04-24T13:07:02;6.05;;;1.90;;
65558;SDS011;52203;51.998;5.140;2023-04-24T13:09:28;6.63;;;1.85;;
65558;SDS011;52203;51.998;5.140;2023-04-24T13:11:54;6.47;;;1.70;;
65558;SDS011;52203;51.998;5.140;2023-04-24T13:14:22;8.27;;;2.03;;
65558;SDS011;52203;51.998;5.140;2023-04-24T13:16:48;6.03;;;1.80;;
65558;SDS011;52203;51.998;5.140;2023-04-24T13:19:14;9.13;;;2.03;;
65558;SDS011;52203;51.998;5.140;2023-04-24T13:21:40;9.95;;;2.22;;
65558;SDS011;52203;51.998;5.140;2023-04-24T13:24:05;8.13;;;1.90;;
65558;SDS011;52203;51.998;5.140;2023-04-24T13:26:32;7.45;;;2.15;;
65558;SDS011;52203;51.998;5.140;2023-04-24T13:28:58;8.85;;;2.08;;
65558;SDS011;52203;51.998;5.140;2023-04-24T13:31:23;6.88;;;2.15;;
65558;SDS011;52203;51.998;5.140;2023-04-24T13:33:49;5.80;;;1.85;;
65558;SDS011;52203;51.998;5.140;2023-04-24T13:36:15;4.20;;;1.40;;
65558;SDS011;52203;51.998;5.140;2023-04-24T13:38:42;10.02;;;2.20;;
65558;SDS011;52203;51.998;5.140;2023-04-24T13:41:08;8.48;;;2.17;;
65558;SDS011;52203;51.998;5.140;2023-04-24T13:43:35;7.43;;;1.90;;
65558;SDS011;52203;51.998;5.140;2023-04-24T13:46:00;7.78;;;2.60;;
65558;SDS011;52203;51.998;5.140;2023-04-24T13:48:27;5.90;;;2.00;;
65558;SDS011;52203;51.998;5.140;2023-04-24T13:50:53;6.63;;;2.20;;
65558;SDS011;52203;51.998;5.140;2023-04-24T13:53:19;9.60;;;2.25;;
65558;SDS011;52203;51.998;5.140;2023-04-24T13:55:45;8.40;;;2.50;;
65558;SDS011;52203;51.998;5.140;2023-04-24T13:58:10;7.13;;;2.00;;
65558;SDS011;52203;51.998;5.140;2023-04-24T14:00:36;6.38;;;2.13;;
65558;SDS011;52203;51.998;5.140;2023-04-24T14:03:01;6.90;;;1.92;;
65558;SDS011;52203;51.998;5.140;2023-04-24T14:05:27;7.00;;;2.22;;
65558;SDS011;52203;51.998;5.140;2023-04-24T14:07:52;7.43;;;2.45;;
65558;SDS011;52203;51.998;5.140;2023-04-24T14:10:18;5.22;;;2.08;;
65558;SDS011;52203;51.998;5.140;2023-04-24T14:12:43;5.55;;;1.95;;
65558;SDS011;52203;51.998;5.140;2023-04-24T14:15:09;4.32;;;1.75;;
65558;SDS011;52203;51.998;5.140;2023-04-24T14:17:35;5.93;;;2.00;;
65558;SDS011;52203;51.998;5.140;2023-04-24T14:20:00;7.32;;;2.17;;
65558;SDS011;52203;51.998;5.140;2023-04-24T14:22:26;6.72;;;2.22;;
65558;SDS011;52203;51.998;5.140;2023-04-24T14:24:52;8.73;;;2.20;;
65558;SDS011;52203;51.998;5.140;2023-04-24T14:27:17;10.50;;;2.80;;
65558;SDS011;52203;51.998;5.140;2023-04-24T14:29:43;11.00;;;2.25;;
65558;SDS011;52203;51.998;5.140;2023-04-24T14:32:10;10.35;;;2.53;;
65558;SDS011;52203;51.998;5.140;2023-04-24T14:34:35;11.23;;;2.45;;
65558;SDS011;52203;51.998;5.140;2023-04-24T14:37:01;10.02;;;2.50;;
65558;SDS011;52203;51.998;5.140;2023-04-24T14:39:27;6.28;;;2.03;;
65558;SDS011;52203;51.998;5.140;2023-04-24T14:41:53;10.02;;;3.42;;
65558;SDS011;52203;51.998;5.140;2023-04-24T14:44:18;6.30;;;2.47;;
65558;SDS011;52203;51.998;5.140;2023-04-24T14:46:44;9.27;;;2.80;;
65558;SDS011;52203;51.998;5.140;2023-04-24T14:49:10;9.98;;;2.78;;
65558;SDS011;52203;51.998;5.140;2023-04-24T14:51:37;10.52;;;2.95;;
65558;SDS011;52203;51.998;5.140;2023-04-24T14:54:03;10.43;;;2.60;;
65558;SDS011;52203;51.998;5.140;2023-04-24T14:56:28;7.57;;;2.72;;
65558;SDS011;52203;51.998;5.140;2023-04-24T14:58:54;11.55;;;2.63;;
65558;SDS011;52203;51.998;5.140;2023-04-24T15:01:20;8.13;;;2.55;;
65558;SDS011;52203;51.998;5.140;2023-04-24T15:03:47;10.13;;;2.75;;
65558;SDS011;52203;51.998;5.140;2023-04-24T15:06:12;8.85;;;2.60;;
65558;SDS011;52203;51.998;5.140;2023-04-24T15:08:38;9.70;;;3.20;;
65558;SDS011;52203;51.998;5.140;2023-04-24T15:11:03;10.45;;;2.80;;